createdAt,value
2023-03-01T00:01:31.816Z,4.80
2023-03-01T00:04:02.106Z,4.90
2023-03-01T00:06:30.062Z,4.90
2023-03-01T00:08:57.682Z,4.90
2023-03-01T00:11:28.319Z,4.90
2023-03-01T00:13:58.193Z,4.90
2023-03-01T00:16:34.651Z,4.90
2023-03-01T00:19:02.393Z,4.90
2023-03-01T00:21:29.648Z,4.90
2023-03-01T00:23:56.993Z,4.90
2023-03-01T00:26:26.211Z,4.90
2023-03-01T00:28:53.909Z,4.90
2023-03-01T00:31:23.301Z,4.90
2023-03-01T00:33:58.433Z,4.90
2023-03-01T00:36:28.162Z,5.00
2023-03-01T00:38:55.648Z,5.00
2023-03-01T00:41:23.775Z,5.00
2023-03-01T00:43:51.546Z,5.00
2023-03-01T00:46:23.262Z,5.10
2023-03-01T00:48:51.286Z,5.10
2023-03-01T00:51:21.765Z,5.10
2023-03-01T00:53:51.198Z,5.20
2023-03-01T00:56:18.516Z,5.20
2023-03-01T00:58:45.971Z,5.20
2023-03-01T01:01:23.312Z,5.20
2023-03-01T01:03:56.804Z,5.20
2023-03-01T01:06:27.238Z,5.20
2023-03-01T01:08:55.572Z,5.20
2023-03-01T01:11:25.198Z,5.20
2023-03-01T01:13:56.702Z,5.20
2023-03-01T01:16:27.470Z,5.20
2023-03-01T01:18:55.322Z,5.20
2023-03-01T01:21:24.574Z,5.20
2023-03-01T01:23:52.350Z,5.20
2023-03-01T01:26:26.150Z,5.20
2023-03-01T01:28:55.099Z,5.20
2023-03-01T01:31:24.784Z,5.20
2023-03-01T01:33:52.706Z,5.20
2023-03-01T01:36:19.632Z,5.20
2023-03-01T01:38:47.532Z,5.20
2023-03-01T01:41:15.146Z,5.20
2023-03-01T01:43:48.548Z,5.20
2023-03-01T01:46:27.794Z,5.20
2023-03-01T01:49:06.690Z,5.20
2023-03-01T01:51:39.903Z,5.20
2023-03-01T01:54:17.648Z,5.20
2023-03-01T01:56:50.699Z,5.20
2023-03-01T01:59:18.480Z,5.20
2023-03-01T02:01:45.657Z,5.20
2023-03-01T02:04:12.861Z,5.20
2023-03-01T02:06:46.436Z,5.20
2023-03-01T02:09:16.378Z,5.20
2023-03-01T02:11:45.630Z,5.30
2023-03-01T02:14:13.006Z,5.30
2023-03-01T02:16:40.108Z,5.30
2023-03-01T02:19:08.816Z,5.40
2023-03-01T02:21:51.450Z,5.40
2023-03-01T02:24:52.507Z,5.50
2023-03-01T02:27:25.904Z,5.50
2023-03-01T02:29:53.580Z,5.50
2023-03-01T02:32:26.078Z,5.60
2023-03-01T02:34:57.442Z,5.60
2023-03-01T02:37:26.878Z,5.60
2023-03-01T02:40:03.950Z,5.60
2023-03-01T02:42:41.921Z,5.60
2023-03-01T02:45:10.200Z,5.60
2023-03-01T02:47:37.843Z,5.70
2023-03-01T02:50:21.178Z,5.70
2023-03-01T02:52:56.256Z,5.70
2023-03-01T02:55:27.052Z,5.70
2023-03-01T02:57:56.664Z,5.70
2023-03-01T03:00:29.745Z,5.70
2023-03-01T03:02:58.252Z,5.70
2023-03-01T03:05:28.821Z,5.70
2023-03-01T03:08:03.186Z,5.80
2023-03-01T03:10:38.056Z,5.80
2023-03-01T03:13:08.360Z,5.80
2023-03-01T03:15:37.146Z,5.80
2023-03-01T03:18:06.963Z,5.80
2023-03-01T03:20:34.964Z,5.80
2023-03-01T03:23:02.165Z,5.80
2023-03-01T03:25:30.128Z,5.80
2023-03-01T03:27:59.057Z,5.80
2023-03-01T03:30:32.323Z,5.80
2023-03-01T03:33:02.226Z,5.80
2023-03-01T03:35:32.606Z,5.80
2023-03-01T03:38:07.403Z,5.80
2023-03-01T03:40:38.026Z,5.80
2023-03-01T03:43:26.378Z,5.80
2023-03-01T03:45:55.493Z,5.80
2023-03-01T03:48:22.837Z,5.80
2023-03-01T03:50:53.253Z,5.80
2023-03-01T03:53:21.360Z,5.80
2023-03-01T03:55:52.798Z,5.80
2023-03-01T03:58:22.244Z,5.80
2023-03-01T04:00:52.770Z,5.70
2023-03-01T04:03:21.261Z,5.70
2023-03-01T04:05:48.788Z,5.70
2023-03-01T04:08:16.103Z,5.70
2023-03-01T04:10:49.087Z,5.70
2023-03-01T04:13:20.910Z,5.70
2023-03-01T04:15:51.903Z,5.60
2023-03-01T04:18:20.743Z,5.60
2023-03-01T04:20:48.468Z,5.70
2023-03-01T04:23:21.633Z,5.70
2023-03-01T04:25:55.209Z,5.70
2023-03-01T04:28:41.096Z,5.60
2023-03-01T04:31:15.168Z,5.70
2023-03-01T04:33:57.570Z,5.70
2023-03-01T04:36:30.785Z,5.70
2023-03-01T04:38:58.663Z,5.70
2023-03-01T04:41:26.787Z,5.70
2023-03-01T04:43:55.156Z,5.70
2023-03-01T04:46:23.284Z,5.70
2023-03-01T04:48:50.516Z,5.70
2023-03-01T04:51:19.717Z,5.80
2023-03-01T04:53:47.428Z,5.80
2023-03-01T04:56:15.391Z,5.80
2023-03-01T04:58:44.548Z,5.80
2023-03-01T05:01:18.197Z,5.80
2023-03-01T05:03:50.916Z,5.80
2023-03-01T05:06:19.485Z,5.80
2023-03-01T05:08:46.723Z,5.80
2023-03-01T05:11:14.421Z,5.80
2023-03-01T05:13:41.785Z,5.80
2023-03-01T05:16:13.378Z,5.80
2023-03-01T05:18:41.809Z,5.80
2023-03-01T05:21:17.285Z,5.80
2023-03-01T05:23:45.272Z,5.80
2023-03-01T05:26:27.434Z,5.80
2023-03-01T05:29:00.475Z,5.80
2023-03-01T05:31:28.967Z,5.80
2023-03-01T05:33:56.558Z,5.80
2023-03-01T05:36:24.269Z,5.80
2023-03-01T05:38:51.512Z,5.80
2023-03-01T05:41:18.958Z,5.80
2023-03-01T05:43:46.584Z,5.80
2023-03-01T05:46:16.441Z,5.80
2023-03-01T05:48:45.096Z,5.80
2023-03-01T05:51:13.272Z,5.80
2023-03-01T05:53:40.816Z,5.80
2023-03-01T05:56:08.917Z,5.80
2023-03-01T05:58:37.360Z,5.90
2023-03-01T06:01:05.197Z,5.90
2023-03-01T06:03:32.819Z,5.90
2023-03-01T06:06:03.145Z,5.90
2023-03-01T06:08:30.729Z,5.80
2023-03-01T06:10:58.923Z,5.90
2023-03-01T06:13:27.039Z,5.90
2023-03-01T06:15:54.178Z,5.90
2023-03-01T06:18:21.880Z,5.90
2023-03-01T06:21:00.068Z,5.90
2023-03-01T06:23:28.040Z,5.90
2023-03-01T06:25:59.021Z,5.90
2023-03-01T06:28:27.917Z,5.90
2023-03-01T06:31:00.104Z,6.00
2023-03-01T06:33:30.877Z,6.00
2023-03-01T06:35:59.208Z,6.00
2023-03-01T06:38:26.567Z,6.00
2023-03-01T06:40:58.402Z,6.00
2023-03-01T06:43:25.843Z,6.00
2023-03-01T06:45:53.236Z,6.00
2023-03-01T06:48:20.701Z,5.90
2023-03-01T06:50:50.306Z,5.90
2023-03-01T06:53:20.351Z,5.90
2023-03-01T06:55:47.838Z,5.90
2023-03-01T06:58:16.016Z,5.90
2023-03-01T07:00:46.792Z,5.90
2023-03-01T07:03:14.391Z,5.90
2023-03-01T07:05:42.075Z,5.90
2023-03-01T07:08:10.045Z,5.90
2023-03-01T07:10:38.472Z,5.90
2023-03-01T07:13:09.153Z,5.90
2023-03-01T07:15:43.107Z,5.90
2023-03-01T07:18:11.604Z,5.80
2023-03-01T07:20:39.173Z,5.80
2023-03-01T07:23:07.390Z,5.80
2023-03-01T07:25:37.615Z,5.80
2023-03-01T07:28:05.601Z,5.80
2023-03-01T07:30:33.563Z,5.80
2023-03-01T07:33:02.308Z,5.90
2023-03-01T07:35:29.920Z,6.00
2023-03-01T07:37:58.048Z,6.00
2023-03-01T07:40:30.165Z,6.10
2023-03-01T07:43:00.284Z,6.10
2023-03-01T07:45:27.738Z,6.20
2023-03-01T07:47:55.945Z,6.20
2023-03-01T07:50:25.029Z,6.30
2023-03-01T07:52:52.334Z,6.30
2023-03-01T07:55:21.599Z,6.30
2023-03-01T07:57:50.603Z,6.30
2023-03-01T08:00:18.567Z,6.30
2023-03-01T08:02:46.638Z,6.30
2023-03-01T08:05:14.071Z,6.40
2023-03-01T08:07:43.359Z,6.40
2023-03-01T08:10:22.071Z,6.50
2023-03-01T08:12:49.694Z,6.50
2023-03-01T08:15:22.394Z,6.60
2023-03-01T08:17:52.222Z,6.70
2023-03-01T08:20:20.166Z,6.70
2023-03-01T08:22:49.641Z,6.80
2023-03-01T08:25:19.314Z,6.80
2023-03-01T08:27:50.607Z,6.90
2023-03-01T08:30:20.031Z,6.90
2023-03-01T08:32:48.741Z,6.90
2023-03-01T08:35:16.920Z,7.00
2023-03-01T08:37:48.166Z,7.00
2023-03-01T08:40:16.826Z,7.00
2023-03-01T08:42:44.744Z,7.00
2023-03-01T08:45:22.291Z,7.00
2023-03-01T08:47:55.719Z,7.00
2023-03-01T08:50:26.121Z,7.00
2023-03-01T08:52:55.428Z,7.00
2023-03-01T08:55:23.384Z,7.00
2023-03-01T08:57:52.590Z,7.10
2023-03-01T09:00:23.679Z,7.10
2023-03-01T09:02:55.234Z,7.10
2023-03-01T09:05:22.838Z,7.10
2023-03-01T09:07:51.992Z,7.20
2023-03-01T09:10:19.939Z,7.10
2023-03-01T09:12:47.899Z,7.20
2023-03-01T09:15:16.609Z,7.10
2023-03-01T09:17:44.499Z,7.20
2023-03-01T09:20:12.572Z,7.20
2023-03-01T09:22:42.821Z,7.20
2023-03-01T09:25:11.362Z,7.30
2023-03-01T09:27:38.933Z,7.30
2023-03-01T09:30:07.049Z,7.30
2023-03-01T09:32:35.029Z,7.40
2023-03-01T09:35:05.022Z,7.40
2023-03-01T09:37:36.855Z,7.50
2023-03-01T09:40:06.396Z,7.60
2023-03-01T09:42:46.693Z,7.60
2023-03-01T09:45:31.128Z,7.70
2023-03-01T09:48:01.574Z,7.70
2023-03-01T09:50:43.151Z,7.70
2023-03-01T09:53:19.883Z,7.70
2023-03-01T09:55:57.938Z,7.60
2023-03-01T09:58:40.030Z,7.60
2023-03-01T10:01:27.150Z,7.60
2023-03-01T10:04:14.157Z,7.60
2023-03-01T10:06:52.726Z,7.60
2023-03-01T10:09:20.793Z,7.60
2023-03-01T10:11:52.974Z,7.60
2023-03-01T10:14:39.115Z,7.60
2023-03-01T10:17:40.467Z,7.60
2023-03-01T10:20:34.897Z,7.60
2023-03-01T10:23:02.902Z,7.60
2023-03-01T10:25:43.699Z,7.50
2023-03-01T10:28:35.191Z,7.50
2023-03-01T10:31:03.517Z,7.50
2023-03-01T10:33:38.940Z,7.50
2023-03-01T10:36:07.009Z,7.50
2023-03-01T10:38:57.869Z,7.50
2023-03-01T10:41:30.245Z,7.50
2023-03-01T10:44:01.328Z,7.40
2023-03-01T10:46:30.759Z,7.40
2023-03-01T10:49:25.201Z,7.40
2023-03-01T10:51:55.012Z,7.40
2023-03-01T10:54:34.611Z,7.30
2023-03-01T10:57:06.948Z,7.30
2023-03-01T10:59:39.742Z,7.30
2023-03-01T11:02:31.018Z,7.20
2023-03-01T11:05:24.822Z,7.20
2023-03-01T11:07:57.783Z,7.20
2023-03-01T11:10:27.309Z,7.20
2023-03-01T11:13:06.306Z,7.10
2023-03-01T11:15:33.639Z,7.10
2023-03-01T11:18:13.396Z,7.10
2023-03-01T11:20:42.666Z,7.10
2023-03-01T11:23:14.498Z,7.10
2023-03-01T11:25:58.097Z,7.10
2023-03-01T11:28:28.626Z,7.10
2023-03-01T11:31:12.892Z,7.00
2023-03-01T11:33:55.912Z,7.00
2023-03-01T11:36:52.160Z,6.90
2023-03-01T11:39:39.546Z,6.80
2023-03-01T11:42:21.939Z,6.80
2023-03-01T11:44:56.784Z,6.70
2023-03-01T11:47:39.299Z,6.70
2023-03-01T11:50:52.787Z,6.70
2023-03-01T11:53:38.620Z,6.70
2023-03-01T11:56:46.804Z,6.50
2023-03-01T11:59:42.712Z,6.50
2023-03-01T12:02:28.996Z,6.50
2023-03-01T12:05:25.690Z,6.40
2023-03-01T12:07:56.948Z,6.40
2023-03-01T12:10:51.727Z,6.40
2023-03-01T12:13:48.740Z,6.30
2023-03-01T12:16:40.102Z,6.30
2023-03-01T12:19:14.794Z,6.30
2023-03-01T12:22:17.206Z,6.30
2023-03-01T12:25:22.576Z,6.30
2023-03-01T12:28:22.960Z,6.40
2023-03-01T12:31:18.692Z,6.40
2023-03-01T12:34:03.528Z,6.30
2023-03-01T12:36:46.817Z,6.30
2023-03-01T12:39:33.270Z,6.30
2023-03-01T12:42:37.104Z,6.30
2023-03-01T12:45:31.741Z,6.20
2023-03-01T12:48:23.917Z,6.10
2023-03-01T12:50:55.197Z,6.10
2023-03-01T12:53:33.267Z,6.10
2023-03-01T12:56:11.332Z,6.10
2023-03-01T12:59:05.958Z,6.10
2023-03-01T13:02:03.479Z,6.10
2023-03-01T13:04:49.717Z,6.10
2023-03-01T13:08:03.253Z,6.20
2023-03-01T13:10:55.099Z,6.20
2023-03-01T13:13:25.801Z,6.20
2023-03-01T13:15:54.650Z,6.20
2023-03-01T13:18:24.439Z,6.20
2023-03-01T13:21:02.034Z,6.30
2023-03-01T13:23:36.576Z,6.30
2023-03-01T13:26:16.125Z,6.30
2023-03-01T13:28:47.162Z,6.30
2023-03-01T13:31:17.549Z,6.30
2023-03-01T13:33:55.980Z,6.30
2023-03-01T13:36:30.562Z,6.40
2023-03-01T13:39:00.105Z,6.30
2023-03-01T13:41:43.133Z,6.30
2023-03-01T13:44:27.244Z,6.30
2023-03-01T13:47:18.762Z,6.40
2023-03-01T13:49:52.181Z,6.40
2023-03-01T13:53:04.164Z,6.40
2023-03-01T13:55:39.698Z,6.30
2023-03-01T13:58:16.709Z,6.30
2023-03-01T14:00:44.638Z,6.30
2023-03-01T14:03:21.138Z,6.30
2023-03-01T14:06:15.917Z,6.30
2023-03-01T14:08:46.845Z,6.30
2023-03-01T14:11:41.315Z,6.30
2023-03-01T14:14:15.590Z,6.20
2023-03-01T14:17:11.703Z,6.30
2023-03-01T14:19:48.025Z,6.30
2023-03-01T14:22:30.128Z,6.20
2023-03-01T14:25:02.342Z,6.30
2023-03-01T14:27:43.410Z,6.20
2023-03-01T14:30:32.437Z,6.20
2023-03-01T14:33:07.440Z,6.30
2023-03-01T14:35:37.961Z,6.30
2023-03-01T14:38:05.942Z,6.30
2023-03-01T14:40:35.772Z,6.40
2023-03-01T14:43:11.027Z,6.30
2023-03-01T14:45:38.505Z,6.40
2023-03-01T14:48:11.464Z,6.40
2023-03-01T14:50:46.765Z,6.40
2023-03-01T14:53:23.257Z,6.40
2023-03-01T14:55:54.647Z,6.40
2023-03-01T14:58:25.119Z,6.40
2023-03-01T15:01:03.978Z,6.40
2023-03-01T15:03:42.506Z,6.40
2023-03-01T15:06:13.344Z,6.40
2023-03-01T15:08:47.211Z,6.40
2023-03-01T15:11:25.819Z,6.40
2023-03-01T15:13:55.044Z,6.40
2023-03-01T15:16:30.815Z,6.40
2023-03-01T15:19:04.930Z,6.40
2023-03-01T15:21:40.158Z,6.30
2023-03-01T15:24:20.554Z,6.30
2023-03-01T15:27:03.406Z,6.30
2023-03-01T15:29:34.741Z,6.30
2023-03-01T15:32:07.772Z,6.20
2023-03-01T15:34:38.469Z,6.30
2023-03-01T15:37:28.539Z,6.30
2023-03-01T15:39:58.166Z,6.30
2023-03-01T15:42:31.447Z,6.30
2023-03-01T15:45:18.390Z,6.30
2023-03-01T15:48:05.536Z,6.30
2023-03-01T15:50:41.703Z,6.30
2023-03-01T15:53:17.050Z,6.40
2023-03-01T15:55:51.920Z,6.40
2023-03-01T15:58:29.808Z,6.50
2023-03-01T16:01:02.503Z,6.50
2023-03-01T16:03:30.769Z,6.60
2023-03-01T16:05:58.589Z,6.60
2023-03-01T16:08:26.100Z,6.70
2023-03-01T16:10:55.785Z,6.70
2023-03-01T16:13:23.621Z,6.70
2023-03-01T16:15:51.137Z,6.70
2023-03-01T16:18:19.079Z,6.70
2023-03-01T16:20:46.863Z,6.70
2023-03-01T16:23:15.541Z,6.70
2023-03-01T16:25:43.293Z,6.70
2023-03-01T16:28:11.536Z,6.70
2023-03-01T16:30:43.454Z,6.70
2023-03-01T16:33:25.235Z,6.70
2023-03-01T16:36:01.220Z,6.70
2023-03-01T16:38:28.594Z,6.80
2023-03-01T16:40:56.248Z,6.80
2023-03-01T16:43:23.910Z,6.80
2023-03-01T16:45:51.799Z,6.80
2023-03-01T16:48:19.146Z,6.80
2023-03-01T16:50:47.051Z,6.80
2023-03-01T16:53:15.337Z,6.80
2023-03-01T16:55:46.574Z,6.80
2023-03-01T16:58:14.026Z,6.80
2023-03-01T17:00:41.781Z,6.80
2023-03-01T17:03:09.230Z,6.80
2023-03-01T17:05:36.451Z,6.80
2023-03-01T17:08:03.867Z,6.80
2023-03-01T17:10:31.226Z,6.80
2023-03-01T17:13:01.078Z,6.70
2023-03-01T17:15:28.522Z,6.70
2023-03-01T17:17:55.735Z,6.70
2023-03-01T17:20:23.197Z,6.70
2023-03-01T17:22:53.043Z,6.70
2023-03-01T17:25:20.351Z,6.70
2023-03-01T17:27:47.936Z,6.60
2023-03-01T17:30:16.049Z,6.60
2023-03-01T17:32:43.876Z,6.60
2023-03-01T17:35:14.292Z,6.60
2023-03-01T17:37:46.673Z,6.60
2023-03-01T17:40:14.667Z,6.60
2023-03-01T17:42:41.950Z,6.60
2023-03-01T17:45:09.487Z,6.60
2023-03-01T17:47:39.674Z,6.60
2023-03-01T17:50:08.328Z,6.60
2023-03-01T17:52:35.940Z,6.60
2023-03-01T17:55:03.866Z,6.50
2023-03-01T17:57:30.970Z,6.50
2023-03-01T17:59:58.791Z,6.50
2023-03-01T18:02:27.011Z,6.50
2023-03-01T18:05:01.932Z,6.50
2023-03-01T18:07:29.744Z,6.50
2023-03-01T18:09:57.404Z,6.60
2023-03-01T18:12:24.692Z,6.60
2023-03-01T18:14:53.720Z,6.60
2023-03-01T18:17:23.815Z,6.60
2023-03-01T18:19:52.792Z,6.70
2023-03-01T18:22:20.167Z,6.70
2023-03-01T18:24:47.530Z,6.70
2023-03-01T18:27:15.280Z,6.70
2023-03-01T18:29:42.545Z,6.80
2023-03-01T18:32:09.874Z,6.80
2023-03-01T18:34:37.519Z,6.80
2023-03-01T18:37:12.131Z,6.90
2023-03-01T18:39:41.910Z,6.90
2023-03-01T18:42:09.369Z,6.90
2023-03-01T18:44:37.025Z,6.90
2023-03-01T18:47:04.549Z,7.00
2023-03-01T18:49:31.948Z,7.00
2023-03-01T18:51:59.682Z,7.00
2023-03-01T18:54:27.826Z,7.00
2023-03-01T18:56:55.254Z,7.00
2023-03-01T18:59:26.109Z,7.00
2023-03-01T19:02:00.079Z,7.00
2023-03-01T19:04:27.549Z,7.00
2023-03-01T19:06:55.257Z,6.90
2023-03-01T19:09:23.039Z,6.90
2023-03-01T19:11:50.488Z,6.90
2023-03-01T19:14:17.999Z,6.90
2023-03-01T19:16:45.525Z,6.90
2023-03-01T19:19:13.109Z,6.90
2023-03-01T19:21:40.322Z,6.90
2023-03-01T19:24:07.820Z,6.90
2023-03-01T19:26:35.618Z,6.90
2023-03-01T19:29:04.091Z,6.90
2023-03-01T19:31:31.583Z,6.80
2023-03-01T19:34:11.132Z,6.80
2023-03-01T19:36:43.060Z,6.80
2023-03-01T19:39:13.989Z,6.80
2023-03-01T19:41:42.462Z,6.80
2023-03-01T19:44:10.562Z,6.80
2023-03-01T19:46:38.571Z,6.80
2023-03-01T19:49:08.037Z,6.80
2023-03-01T19:51:39.237Z,6.80
2023-03-01T19:54:07.199Z,6.80
2023-03-01T19:56:35.360Z,6.90
2023-03-01T19:59:04.834Z,6.90
2023-03-01T20:01:34.790Z,6.90
2023-03-01T20:04:03.265Z,6.80
2023-03-01T20:06:35.488Z,6.80
2023-03-01T20:09:21.537Z,6.80
2023-03-01T20:11:50.631Z,6.80
2023-03-01T20:14:18.660Z,6.80
2023-03-01T20:16:49.448Z,6.80
2023-03-01T20:19:16.686Z,6.80
2023-03-01T20:21:43.935Z,6.80
2023-03-01T20:24:11.566Z,6.70
2023-03-01T20:26:41.369Z,6.70
2023-03-01T20:29:09.736Z,6.70
2023-03-01T20:31:37.229Z,6.70
2023-03-01T20:34:04.900Z,6.70
2023-03-01T20:36:32.180Z,6.70
2023-03-01T20:38:59.514Z,6.70
2023-03-01T20:41:27.175Z,6.70
2023-03-01T20:43:56.756Z,6.70
2023-03-01T20:46:26.754Z,6.70
2023-03-01T20:48:54.545Z,6.70
2023-03-01T20:51:24.096Z,6.70
2023-03-01T20:53:54.864Z,6.70
2023-03-01T20:56:23.549Z,6.70
2023-03-01T20:59:10.878Z,6.80
2023-03-01T21:01:40.075Z,6.80
2023-03-01T21:04:07.618Z,6.80
2023-03-01T21:06:35.692Z,6.80
2023-03-01T21:09:03.306Z,6.80
2023-03-01T21:11:30.410Z,6.80
2023-03-01T21:13:57.864Z,6.80
2023-03-01T21:16:25.859Z,6.80
2023-03-01T21:18:53.566Z,6.80
2023-03-01T21:21:23.604Z,6.80
2023-03-01T21:23:50.974Z,6.80
2023-03-01T21:26:21.073Z,6.80
2023-03-01T21:28:50.462Z,6.80
2023-03-01T21:31:24.471Z,6.80
2023-03-01T21:33:54.240Z,6.80
2023-03-01T21:36:22.937Z,6.80
2023-03-01T21:38:51.653Z,6.80
2023-03-01T21:41:28.908Z,6.80
2023-03-01T21:43:57.966Z,6.90
2023-03-01T21:46:26.574Z,6.90
2023-03-01T21:48:55.449Z,6.90
2023-03-01T21:51:25.566Z,6.90
2023-03-01T21:53:54.441Z,7.00
2023-03-01T21:56:28.238Z,7.00
2023-03-01T21:58:55.815Z,7.00
2023-03-01T22:01:25.864Z,7.10
2023-03-01T22:03:54.002Z,7.10
2023-03-01T22:06:25.031Z,7.10
2023-03-01T22:08:58.812Z,7.20
2023-03-01T22:11:28.597Z,7.20
2023-03-01T22:13:56.978Z,7.20
2023-03-01T22:16:30.903Z,7.20
2023-03-01T22:18:59.520Z,7.30
2023-03-01T22:21:27.540Z,7.30
2023-03-01T22:23:55.913Z,7.30
2023-03-01T22:26:29.572Z,7.30
2023-03-01T22:28:59.224Z,7.40
2023-03-01T22:31:30.171Z,7.40
2023-03-01T22:33:58.484Z,7.40
2023-03-01T22:36:26.871Z,7.40
2023-03-01T22:39:02.835Z,7.50
2023-03-01T22:41:32.579Z,7.50
2023-03-01T22:43:59.813Z,7.50
2023-03-01T22:46:28.148Z,7.50
2023-03-01T22:48:56.663Z,7.50
2023-03-01T22:51:28.699Z,7.50
2023-03-01T22:53:57.011Z,7.60
2023-03-01T22:56:29.025Z,7.60
2023-03-01T22:58:58.921Z,7.60
2023-03-01T23:01:27.358Z,7.50
2023-03-01T23:03:54.901Z,7.60
2023-03-01T23:06:23.722Z,7.60
2023-03-01T23:08:52.838Z,7.50
2023-03-01T23:11:21.217Z,7.50
2023-03-01T23:13:49.114Z,7.60
2023-03-01T23:16:17.526Z,7.60
2023-03-01T23:18:46.063Z,7.60
2023-03-01T23:21:19.316Z,7.60
2023-03-01T23:23:48.629Z,7.60
2023-03-01T23:26:18.333Z,7.60
2023-03-01T23:28:45.969Z,7.60
2023-03-01T23:31:15.168Z,7.50
2023-03-01T23:33:45.385Z,7.50
2023-03-01T23:36:24.356Z,7.50
2023-03-01T23:38:55.695Z,7.50
2023-03-01T23:41:26.006Z,7.50
2023-03-01T23:43:55.526Z,7.50
2023-03-01T23:46:25.275Z,7.50
2023-03-01T23:48:53.746Z,7.50
2023-03-01T23:51:21.258Z,7.50
2023-03-01T23:53:57.687Z,7.50
2023-03-01T23:56:37.320Z,7.50
2023-03-01T23:59:14.785Z,7.40
